Hovedside
METAR-TAF:

METAR-TAF

Lufthavner :

Kuopio lufthavn

Kuopio, Finland

breddegrad: 63-01N, lengdegrad: 027-48E, høyde over havet: 98 m

Gjeldene værobservasjon

Denne rapporten ble laget for 28 minutter siden, klokken 03:50 UTC
Vind 6 kt fra Nord
Temperatur 0°C
Luftfuktighet 93%
Trykk 993 hPa
Sikt 10 km eller mer
ingen skyer under 1500 m og ingen bygeskyer

METAR: EFKU 240350Z AUTO 01006KT CAVOK 00/M01 Q0993

Tid: 07:18 (04:18 UTC)

Varsel

Denne rapporten ble laget for 1 time og 43 minutter siden, klokken 02:35 UTC
Varsel gyldig fra 24. klokken 03 UTC til 25. klokken 03 UTC
Vind 5 kt fra Nord
Sikt 10 km eller mer
Få skyer i en høyde av 700 ft
Brutte skyer i en høyde av 2500 ft
Sannsynlighet 30% :
Midlertidig
fra 24. klokken 03 UTC til 24. klokken 06 UTC
Brutte skyer i en høyde av 500 ft

TAF: EFKU 240235Z 2403/2503 01005KT 9999 FEW007 BKN025 PROB30 TEMPO 2403/2406 BKN005

Værobservasjoner og værvarsel for over 4000 flyplasser (METAR- og TAF-rapporter).

Tilgjengelige stasjoner er representert av de røde og gule prikkene på kartet.

Hold musepekeren over prikken for å se navnet på stasjonen.

Klikk så for å se værobservasjoner og -varsler.

For å forandre kartet kan du klikke på den grønne knappen med svart kryss for å zoome inn, på den grønne knappen med strek for å zoome ut, eller på de grønne pilene for å se tilstøtende kart.


METAR-TAF: